Time;durP1;ratioP1;P1;durP2;ratioP2;P2;SDS_P1;SDS_P2;PMS_P1;PMS_P2;Temp;Humidity;BMP_temperature;BMP_pressure;BME280_temperature;BME280_humidity;BME280_pressure;Samples;Min_cycle;Max_cycle;Signal;HPM_P1;HPM_P2
2022/05/05 00:01:58;;;;;;;0.35;0.35;;;22.90;70.20;;;;;;5095578;23;20562;-50
2022/05/05 00:04:01;;;;;;;0.85;0.75;;;22.90;70.10;;;;;;5102264;23;20032;-51
2022/05/05 00:06:03;;;;;;;0.88;0.55;;;22.90;70.10;;;;;;5095405;23;20029;-51
2022/05/05 00:08:05;;;;;;;1.02;0.68;;;22.90;70.00;;;;;;5097071;23;20028;-52
2022/05/05 00:15:07;;;;;;;0.45;0.45;;;22.90;70.00;;;;;;5055751;23;20029;-55
2022/05/05 00:17:10;;;;;;;0.90;0.50;;;22.90;69.90;;;;;;5100202;23;20024;-57
2022/05/05 00:19:12;;;;;;;1.02;0.73;;;22.90;70.00;;;;;;5094072;23;20028;-56
2022/05/05 00:21:15;;;;;;;0.60;0.60;;;22.90;70.00;;;;;;5091519;23;20251;-53
2022/05/05 00:23:17;;;;;;;0.55;0.55;;;22.90;70.20;;;;;;5077027;23;20645;-54
2022/05/05 00:25:19;;;;;;;1.35;0.55;;;22.90;70.10;;;;;;5098001;23;20077;-55
2022/05/05 00:27:22;;;;;;;0.82;0.60;;;22.90;70.10;;;;;;5069970;23;20957;-54
2022/05/05 00:29:25;;;;;;;0.98;0.70;;;23.00;70.10;;;;;;5098904;23;20032;-53
2022/05/05 00:31:27;;;;;;;0.30;0.30;;;23.00;70.10;;;;;;5102118;23;20536;-53
2022/05/05 00:33:30;;;;;;;1.08;0.70;;;22.90;70.20;;;;;;5095517;23;20107;-54
2022/05/05 00:35:32;;;;;;;2.05;0.80;;;22.90;70.10;;;;;;5095409;23;20340;-58
2022/05/05 00:37:34;;;;;;;3.47;0.93;;;22.90;70.40;;;;;;5097919;23;20036;-60
2022/05/05 00:39:36;;;;;;;1.70;0.82;;;23.00;70.70;;;;;;5094774;23;20419;-59
2022/05/05 00:41:41;;;;;;;2.40;0.73;;;23.00;70.30;;;;;;5066788;23;20029;-60
2022/05/05 00:43:43;;;;;;;0.63;0.60;;;23.00;70.40;;;;;;5099213;23;20676;-59
2022/05/05 00:45:45;;;;;;;2.30;0.63;;;23.10;70.40;;;;;;5074810;23;20630;-59
2022/05/05 00:47:48;;;;;;;1.08;0.40;;;23.10;70.50;;;;;;5072730;23;20385;-59
2022/05/05 00:49:50;;;;;;;0.43;0.40;;;23.10;70.30;;;;;;5066606;23;20424;-59
2022/05/05 00:51:52;;;;;;;0.20;0.20;;;23.10;70.20;;;;;;5050107;23;20943;-59
2022/05/05 00:53:57;;;;;;;0.75;0.35;;;23.20;70.30;;;;;;5098527;23;20028;-59
2022/05/05 00:56:06;;;;;;;0.30;0.30;;;23.20;70.90;;;;;;5093332;23;20337;-57
2022/05/05 00:58:09;;;;;;;0.30;0.30;;;23.20;70.30;;;;;;5095948;23;20029;-59
2022/05/05 01:00:12;;;;;;;0.88;0.47;;;23.20;70.20;;;;;;5098965;23;20205;-59
2022/05/05 01:02:14;;;;;;;1.10;0.55;;;23.30;70.20;;;;;;5096599;23;20566;-60
2022/05/05 01:04:17;;;;;;;0.30;0.30;;;23.30;70.10;;;;;;5096763;23;20115;-59
2022/05/05 01:06:19;;;;;;;0.32;0.32;;;23.30;70.00;;;;;;5095780;23;20031;-60
2022/05/05 01:08:22;;;;;;;0.90;0.47;;;23.40;70.10;;;;;;5101609;23;20075;-59
2022/05/05 01:10:27;;;;;;;2.17;0.63;;;23.30;70.00;;;;;;5070332;23;20373;-59
2022/05/05 01:12:31;;;;;;;0.32;0.32;;;23.40;70.00;;;;;;5094861;23;20032;-59
2022/05/05 01:14:34;;;;;;;2.13;0.55;;;23.40;69.80;;;;;;5071204;23;20037;-59
2022/05/05 01:16:37;;;;;;;0.30;0.30;;;23.40;69.80;;;;;;5101234;23;20490;-61
2022/05/05 01:18:39;;;;;;;1.80;0.47;;;23.40;69.70;;;;;;5094327;23;20028;-59
2022/05/05 01:20:49;;;;;;;3.97;0.40;;;23.40;69.70;;;;;;5068604;23;20081;-59
2022/05/05 01:22:51;;;;;;;0.38;0.38;;;23.40;69.70;;;;;;5071129;23;20118;-61
2022/05/05 01:29:34;;;;;;;2.08;0.50;;;23.40;69.70;;;;;;5102326;23;20329;-62
2022/05/05 01:31:36;;;;;;;0.50;0.40;;;23.50;69.70;;;;;;5107878;23;20021;-63
2022/05/05 01:33:39;;;;;;;1.05;0.40;;;23.50;69.70;;;;;;5077474;23;20100;-59
2022/05/05 01:35:43;;;;;;;11.77;0.93;;;23.50;70.00;;;;;;5101808;23;20358;-59
2022/05/05 01:37:45;;;;;;;1.40;0.47;;;23.50;70.10;;;;;;5074583;23;20120;-59
2022/05/05 01:39:48;;;;;;;0.33;0.30;;;23.60;70.00;;;;;;5106793;23;20028;-60
2022/05/05 01:41:50;;;;;;;0.30;0.30;;;23.60;69.90;;;;;;5069692;23;20205;-60
2022/05/05 01:43:52;;;;;;;0.43;0.30;;;23.60;69.80;;;;;;5065589;23;20427;-61
2022/05/05 01:45:55;;;;;;;4.57;0.30;;;23.60;69.80;;;;;;5096392;23;20039;-60
2022/05/05 01:47:57;;;;;;;2.00;0.52;;;23.70;69.70;;;;;;5096645;23;20029;-60
2022/05/05 01:50:00;;;;;;;0.57;0.50;;;23.70;69.70;;;;;;5069314;23;20053;-60
2022/05/05 01:52:02;;;;;;;;;;;23.70;69.50;;;;;;5068222;23;20024;-60
2022/05/05 01:54:04;;;;;;;2.35;0.40;;;23.70;69.40;;;;;;5074097;23;20511;-60
2022/05/05 01:56:14;;;;;;;0.43;0.40;;;23.80;69.40;;;;;;5092835;23;20422;-59
2022/05/05 01:58:16;;;;;;;0.57;0.50;;;23.80;69.40;;;;;;5064725;23;20029;-58
2022/05/05 02:00:20;;;;;;;0.98;0.63;;;23.80;69.40;;;;;;5065495;23;20032;-57
2022/05/05 02:02:22;;;;;;;1.67;0.40;;;23.80;69.30;;;;;;5047104;23;20104;-60
2022/05/05 02:04:25;;;;;;;1.52;0.40;;;23.80;69.30;;;;;;5069446;23;21044;-60
2022/05/05 02:06:27;;;;;;;0.63;0.50;;;23.80;69.20;;;;;;5068077;23;20029;-61
2022/05/05 02:08:29;;;;;;;0.40;0.40;;;23.80;69.20;;;;;;5068877;23;20036;-62
2022/05/05 02:10:31;;;;;;;0.50;0.50;;;23.80;69.20;;;;;;5099049;23;20516;-62
2022/05/05 02:12:36;;;;;;;0.90;0.35;;;23.80;69.20;;;;;;5093709;23;20047;-61
2022/05/05 02:14:38;;;;;;;0.30;0.30;;;23.90;69.20;;;;;;5068174;23;20135;-61
2022/05/05 02:16:40;;;;;;;8.88;0.60;;;23.80;69.10;;;;;;5099785;23;20146;-63
2022/05/05 02:18:42;;;;;;;1.33;0.65;;;23.90;69.20;;;;;;5066686;23;20585;-60
2022/05/05 02:20:44;;;;;;;0.30;0.30;;;23.90;69.10;;;;;;5068345;23;20528;-61
2022/05/05 02:22:46;;;;;;;1.00;0.32;;;23.90;69.30;;;;;;5070680;23;20025;-55
2022/05/05 02:24:48;;;;;;;4.63;0.50;;;23.90;69.30;;;;;;5097247;23;20155;-58
2022/05/05 02:26:50;;;;;;;7.38;1.15;;;23.90;69.50;;;;;;5068907;23;20430;-61
2022/05/05 02:28:52;;;;;;;9.52;1.02;;;23.90;69.50;;;;;;5045146;23;20025;-62
2022/05/05 02:30:54;;;;;;;5.90;1.23;;;24.00;69.40;;;;;;5096854;23;20032;-60
2022/05/05 02:32:57;;;;;;;7.32;0.90;;;24.00;69.30;;;;;;5093716;23;20419;-61
2022/05/05 02:34:59;;;;;;;3.40;0.53;;;24.00;69.30;;;;;;5090111;23;20409;-59
2022/05/05 02:39:22;;;;;;;6.63;0.75;;;24.00;69.10;;;;;;5089619;23;20029;-60
2022/05/05 02:41:25;;;;;;;2.45;0.60;;;24.10;69.90;;;;;;5074320;23;20029;-60
2022/05/05 02:43:27;;;;;;;1.83;0.80;;;24.10;69.10;;;;;;5093797;23;20228;-61
2022/05/05 02:45:29;;;;;;;0.57;0.45;;;24.10;69.80;;;;;;5069885;23;20517;-60
2022/05/05 02:47:31;;;;;;;4.20;0.70;;;24.10;69.10;;;;;;5071710;23;20029;-59
2022/05/05 02:49:33;;;;;;;4.68;0.88;;;24.20;69.20;;;;;;5096193;23;20071;-58
2022/05/05 02:51:35;;;;;;;2.05;0.60;;;24.10;69.00;;;;;;5091924;23;20396;-59
2022/05/05 02:55:58;;;;;;;1.45;0.40;;;24.20;69.00;;;;;;5067770;23;20516;-54
2022/05/05 02:58:00;;;;;;;1.27;0.68;;;24.20;68.80;;;;;;5071951;23;20526;-57
2022/05/05 03:00:07;;;;;;;1.75;0.80;;;24.30;68.40;;;;;;5072542;23;20032;-57
2022/05/05 03:02:09;;;;;;;1.83;1.00;;;24.20;68.20;;;;;;5092331;23;20138;-51
2022/05/05 03:04:11;;;;;;;1.08;0.55;;;24.30;68.50;;;;;;5095923;23;20032;-60
2022/05/05 03:06:14;;;;;;;0.77;0.63;;;24.30;68.50;;;;;;5073000;23;20043;-58
2022/05/05 03:08:16;;;;;;;1.17;0.70;;;24.30;68.40;;;;;;5069000;23;20269;-59
2022/05/05 03:10:18;;;;;;;0.73;0.60;;;24.30;68.40;;;;;;5095611;23;20434;-58
2022/05/05 03:12:20;;;;;;;2.40;1.02;;;24.40;68.30;;;;;;5095866;23;20437;-59
2022/05/05 03:14:22;;;;;;;1.58;0.60;;;24.40;68.30;;;;;;5049780;23;20108;-58
2022/05/05 03:16:24;;;;;;;0.70;0.50;;;24.50;68.20;;;;;;5078590;23;20033;-53
2022/05/05 03:18:26;;;;;;;2.60;0.60;;;24.50;68.00;;;;;;5110741;23;20025;-58
2022/05/05 03:20:29;;;;;;;0.82;0.47;;;24.50;68.20;;;;;;5122416;23;20024;-55
2022/05/05 03:22:31;;;;;;;1.77;0.50;;;24.60;68.20;;;;;;5111032;23;20554;-59
2022/05/05 03:24:33;;;;;;;0.85;0.70;;;24.60;68.20;;;;;;5111516;23;20033;-54
2022/05/05 03:26:35;;;;;;;1.40;0.60;;;24.60;68.10;;;;;;5106542;23;20035;-59
2022/05/05 03:28:37;;;;;;;0.95;0.50;;;24.70;68.00;;;;;;5099271;23;20036;-56
2022/05/05 03:30:40;;;;;;;0.70;0.40;;;24.70;67.90;;;;;;5095030;23;20025;-55
2022/05/05 03:32:43;;;;;;;1.10;0.30;;;24.70;67.80;;;;;;5096506;23;20028;-57
2022/05/05 03:34:45;;;;;;;0.75;0.60;;;24.80;67.80;;;;;;5101940;23;20031;-55
2022/05/05 03:36:47;;;;;;;0.43;0.43;;;24.80;67.80;;;;;;5070074;23;20052;-59
2022/05/05 03:38:49;;;;;;;0.85;0.50;;;24.80;67.60;;;;;;5095929;23;20252;-58
2022/05/05 03:40:52;;;;;;;0.85;0.45;;;24.90;67.60;;;;;;5072868;23;20033;-58
2022/05/05 03:42:54;;;;;;;1.83;0.52;;;24.90;67.60;;;;;;5095458;23;20559;-58
2022/05/05 03:44:56;;;;;;;1.35;0.47;;;24.90;67.60;;;;;;5094640;23;20102;-59
2022/05/05 03:46:59;;;;;;;0.40;0.40;;;24.90;67.40;;;;;;5098236;23;20028;-56
2022/05/05 03:49:01;;;;;;;0.98;0.45;;;24.90;67.40;;;;;;5095223;23;20108;-54
2022/05/05 03:51:03;;;;;;;1.45;0.63;;;24.90;67.30;;;;;;5092727;23;20052;-59
2022/05/05 03:53:06;;;;;;;6.57;1.20;;;25.00;67.20;;;;;;5068276;23;20178;-57
2022/05/05 03:55:09;;;;;;;3.35;0.80;;;24.90;66.30;;;;;;5099377;23;20025;-59
2022/05/05 03:57:11;;;;;;;2.08;0.77;;;24.90;65.70;;;;;;5092402;23;20533;-59
2022/05/05 03:59:13;;;;;;;3.40;1.02;;;24.90;65.30;;;;;;5065141;23;20060;-59
2022/05/05 04:01:15;;;;;;;1.92;0.95;;;24.80;65.00;;;;;;5100177;23;20024;-61
2022/05/05 04:03:32;;;;;;;1.17;0.88;;;24.80;64.80;;;;;;5069223;23;21227;-60
2022/05/05 04:05:35;;;;;;;1.27;0.70;;;24.80;64.80;;;;;;5072591;23;20536;-58
2022/05/05 04:07:37;;;;;;;3.15;0.77;;;24.80;64.80;;;;;;5092789;23;20337;-60
2022/05/05 04:09:39;;;;;;;2.92;1.00;;;24.80;64.90;;;;;;5093664;23;20039;-54
2022/05/05 04:11:41;;;;;;;1.90;0.80;;;24.90;65.10;;;;;;5073587;23;20145;-59
2022/05/05 04:13:43;;;;;;;0.85;0.50;;;25.00;65.50;;;;;;5070402;23;20248;-59
2022/05/05 04:15:46;;;;;;;1.98;0.70;;;25.00;65.40;;;;;;5070423;23;20421;-58
2022/05/05 04:17:49;;;;;;;4.18;1.10;;;25.10;65.40;;;;;;5098698;23;20028;-58
2022/05/05 04:19:51;;;;;;;1.67;0.73;;;25.10;65.30;;;;;;5096563;23;20263;-59
2022/05/05 04:21:53;;;;;;;3.33;0.57;;;25.20;65.40;;;;;;5094448;23;20033;-59
2022/05/05 04:23:56;;;;;;;1.75;0.70;;;25.20;65.40;;;;;;5068676;23;20033;-59
2022/05/05 04:25:58;;;;;;;1.63;0.60;;;25.30;66.10;;;;;;5098318;23;20693;-59
2022/05/05 04:28:00;;;;;;;1.42;0.70;;;25.40;65.60;;;;;;5094129;23;20281;-59
2022/05/05 04:30:03;;;;;;;1.23;0.40;;;25.40;65.60;;;;;;5065453;23;20056;-59
2022/05/05 04:32:07;;;;;;;1.45;0.60;;;25.30;65.60;;;;;;5071185;23;20028;-59
2022/05/05 04:34:09;;;;;;;0.50;0.50;;;25.40;65.70;;;;;;5099367;23;20444;-59
2022/05/05 04:36:12;;;;;;;0.77;0.57;;;25.30;65.90;;;;;;5095868;23;20032;-59
2022/05/05 04:38:14;;;;;;;0.50;0.50;;;25.30;65.80;;;;;;5065794;23;20024;-58
2022/05/05 04:40:17;;;;;;;1.50;0.55;;;25.30;65.90;;;;;;5100524;23;20032;-59
2022/05/05 04:42:19;;;;;;;1.67;0.40;;;25.30;65.90;;;;;;5066202;23;20440;-61
2022/05/05 04:44:21;;;;;;;0.50;0.50;;;25.30;66.00;;;;;;5067461;23;20063;-59
2022/05/05 04:46:23;;;;;;;0.93;0.47;;;25.30;66.00;;;;;;5095127;23;20105;-57
2022/05/05 04:48:25;;;;;;;0.65;0.50;;;25.30;66.20;;;;;;5090673;23;20498;-60
2022/05/05 04:50:27;;;;;;;1.15;0.40;;;25.20;66.00;;;;;;5088914;23;20203;-60
2022/05/05 04:52:31;;;;;;;1.65;0.52;;;25.20;66.10;;;;;;5092165;23;20345;-59
2022/05/05 04:54:33;;;;;;;0.73;0.70;;;25.20;66.00;;;;;;5098876;23;20032;-59
2022/05/05 04:56:35;;;;;;;1.65;0.50;;;25.30;66.10;;;;;;5091622;23;20025;-58
2022/05/05 04:58:37;;;;;;;1.25;0.60;;;25.20;66.00;;;;;;5090327;23;20043;-59
2022/05/05 05:00:39;;;;;;;1.85;0.60;;;25.20;66.00;;;;;;5095029;23;20036;-59
2022/05/05 05:02:41;;;;;;;0.40;0.40;;;25.30;66.00;;;;;;5063036;23;20055;-58
2022/05/05 05:04:44;;;;;;;0.65;0.50;;;25.40;65.90;;;;;;5092236;23;20036;-58
2022/05/05 05:06:46;;;;;;;0.60;0.47;;;25.50;65.80;;;;;;5096408;23;20741;-59
2022/05/05 05:08:48;;;;;;;0.40;0.40;;;25.50;65.50;;;;;;5068136;23;20044;-56
2022/05/05 05:10:50;;;;;;;2.05;0.60;;;25.60;65.40;;;;;;5091653;23;20302;-59
2022/05/05 05:12:52;;;;;;;1.20;0.60;;;25.60;65.20;;;;;;5093125;23;20547;-54
2022/05/05 05:14:54;;;;;;;0.77;0.40;;;25.70;65.10;;;;;;5099592;23;20035;-58
2022/05/05 05:16:56;;;;;;;1.00;0.60;;;25.70;65.10;;;;;;5085565;23;20032;-59
2022/05/05 05:18:58;;;;;;;1.17;0.70;;;25.80;65.10;;;;;;5064219;23;20309;-59
2022/05/05 05:21:00;;;;;;;3.25;1.10;;;25.80;64.90;;;;;;5096405;23;20028;-57
2022/05/05 05:23:03;;;;;;;1.88;0.60;;;25.80;65.10;;;;;;5064346;23;20265;-59
2022/05/05 05:25:05;;;;;;;1.17;0.65;;;25.70;64.90;;;;;;5092569;23;20028;-59
2022/05/05 05:27:08;;;;;;;1.02;0.50;;;25.70;64.90;;;;;;5097588;23;20381;-59
2022/05/05 05:29:10;;;;;;;1.38;0.88;;;25.70;64.90;;;;;;5067630;23;20032;-59
2022/05/05 05:31:12;;;;;;;1.48;0.77;;;25.70;65.00;;;;;;5090351;23;20397;-59
2022/05/05 05:33:15;;;;;;;2.22;0.63;;;25.70;65.00;;;;;;5042982;23;20039;-58
2022/05/05 05:35:17;;;;;;;1.17;0.60;;;25.70;65.10;;;;;;5073557;23;20029;-58
2022/05/05 05:37:19;;;;;;;1.70;0.70;;;25.70;65.20;;;;;;5065990;23;20452;-59
2022/05/05 05:39:21;;;;;;;3.78;1.20;;;25.60;65.20;;;;;;5064656;23;20041;-59
2022/05/05 05:41:23;;;;;;;2.13;0.90;;;25.60;65.00;;;;;;5074352;23;20029;-58
2022/05/05 05:43:25;;;;;;;0.68;0.50;;;25.70;65.10;;;;;;5067071;23;20045;-58
2022/05/05 05:45:27;;;;;;;2.55;1.00;;;25.70;65.10;;;;;;5040391;23;20048;-58
2022/05/05 05:47:31;;;;;;;1.70;0.90;;;25.70;65.10;;;;;;5070815;23;20029;-59
2022/05/05 05:49:33;;;;;;;2.17;0.70;;;25.70;65.20;;;;;;5067167;23;20455;-58
2022/05/05 05:51:35;;;;;;;1.45;0.68;;;25.70;65.10;;;;;;5063681;23;20029;-57
2022/05/05 05:53:37;;;;;;;1.90;1.00;;;25.60;65.00;;;;;;5041271;23;20029;-59
2022/05/05 05:55:39;;;;;;;2.60;1.00;;;25.70;65.10;;;;;;5069460;23;20433;-58
2022/05/05 05:57:42;;;;;;;3.60;0.88;;;25.70;65.10;;;;;;5067001;23;20141;-59
2022/05/05 05:59:44;;;;;;;1.90;0.75;;;25.70;65.10;;;;;;5065763;23;20029;-59
2022/05/05 06:04:08;;;;;;;1.77;0.85;;;25.70;65.00;;;;;;5066190;23;20036;-58
2022/05/05 06:06:11;;;;;;;2.45;0.73;;;25.70;65.00;;;;;;5073857;23;20032;-59
2022/05/05 06:08:13;;;;;;;1.05;0.65;;;25.70;65.00;;;;;;5066014;23;20516;-57
2022/05/05 06:10:17;;;;;;;1.20;0.65;;;25.70;65.00;;;;;;5066579;23;20099;-57
2022/05/05 06:12:19;;;;;;;2.83;0.88;;;25.70;64.90;;;;;;5071054;23;20231;-59
2022/05/05 06:14:21;;;;;;;2.05;0.60;;;25.70;64.90;;;;;;5071053;23;20033;-56
2022/05/05 06:16:23;;;;;;;1.17;0.77;;;25.70;65.00;;;;;;5069049;23;20410;-57
2022/05/05 06:18:25;;;;;;;2.80;0.90;;;25.70;65.00;;;;;;5070419;23;20136;-58
2022/05/05 06:20:28;;;;;;;1.35;0.93;;;25.70;65.00;;;;;;5072195;23;20055;-58
2022/05/05 06:22:30;;;;;;;1.40;0.70;;;25.70;65.00;;;;;;5069189;23;20128;-58
2022/05/05 06:24:32;;;;;;;1.90;1.00;;;25.70;64.90;;;;;;5069991;23;20134;-56
2022/05/05 06:26:35;;;;;;;2.63;0.70;;;25.70;65.00;;;;;;5073199;23;20452;-57
2022/05/05 06:28:37;;;;;;;1.38;0.70;;;25.80;65.00;;;;;;5070502;23;20751;-56
2022/05/05 06:30:39;;;;;;;3.72;1.00;;;25.80;64.90;;;;;;5067765;23;20183;-56
2022/05/05 06:32:42;;;;;;;1.05;0.60;;;25.80;64.90;;;;;;5077158;23;20056;-58
2022/05/05 06:34:44;;;;;;;1.85;0.75;;;25.80;64.70;;;;;;5073634;23;20434;-57
2022/05/05 06:36:46;;;;;;;2.25;0.90;;;25.90;64.70;;;;;;5093299;23;20534;-60
2022/05/05 06:38:52;;;;;;;0.65;0.50;;;25.90;64.70;;;;;;5068075;23;20059;-60
2022/05/05 06:40:54;;;;;;;3.35;0.73;;;25.90;64.70;;;;;;5070118;23;20111;-60
2022/05/05 06:42:56;;;;;;;4.20;0.77;;;25.90;64.70;;;;;;5067759;23;20569;-61
2022/05/05 06:44:59;;;;;;;1.08;0.60;;;25.80;64.60;;;;;;5063977;23;20337;-58
2022/05/05 06:47:01;;;;;;;;;;;25.80;64.60;;;;;;5045316;23;20043;-59
2022/05/05 06:49:04;;;;;;;1.30;0.90;;;25.80;64.70;;;;;;5094699;23;20420;-59
2022/05/05 06:51:06;;;;;;;2.45;0.70;;;25.80;64.70;;;;;;5067525;23;20104;-59
2022/05/05 06:53:09;;;;;;;1.63;0.90;;;25.80;64.80;;;;;;5064110;23;21065;-59
2022/05/05 06:55:12;;;;;;;1.98;0.88;;;25.80;64.80;;;;;;5098068;23;20721;-58
2022/05/05 06:57:14;;;;;;;1.52;0.75;;;25.70;64.80;;;;;;5064755;23;20357;-58
2022/05/05 06:59:16;;;;;;;1.60;0.90;;;25.70;64.90;;;;;;5091064;23;20029;-58
2022/05/05 07:03:39;;;;;;;4.65;0.80;;;25.70;65.00;;;;;;5064639;23;20025;-58
2022/05/05 07:05:41;;;;;;;4.78;0.90;;;25.70;64.90;;;;;;5071743;23;20028;-57
2022/05/05 07:07:43;;;;;;;3.20;0.68;;;25.70;65.00;;;;;;5097202;23;20028;-59
2022/05/05 07:12:07;;;;;;;1.05;0.57;;;25.70;65.00;;;;;;5069687;23;20351;-60
2022/05/05 07:14:09;;;;;;;1.13;0.68;;;25.60;65.00;;;;;;5064544;23;20330;-59
2022/05/05 07:16:12;;;;;;;2.10;0.82;;;25.70;65.00;;;;;;5097264;23;20021;-59
2022/05/05 07:18:14;;;;;;;0.93;0.63;;;25.60;65.10;;;;;;5102936;23;20399;-61
2022/05/05 07:20:16;;;;;;;1.23;0.82;;;25.60;65.20;;;;;;5042124;23;20029;-61
2022/05/05 07:22:19;;;;;;;1.35;0.70;;;25.60;65.20;;;;;;5095799;23;20024;-59
2022/05/05 07:24:21;;;;;;;1.17;0.65;;;25.60;65.20;;;;;;5101508;23;20562;-56
2022/05/05 07:26:23;;;;;;;3.20;0.80;;;25.60;65.20;;;;;;5094442;23;20637;-59
2022/05/05 07:28:25;;;;;;;5.10;1.30;;;25.60;65.20;;;;;;5094677;23;20033;-59
2022/05/05 07:30:27;;;;;;;19.70;1.30;;;25.60;65.20;;;;;;5097738;23;20071;-59
2022/05/05 07:32:30;;;;;;;2.28;0.95;;;25.50;65.20;;;;;;5070613;23;20033;-58
2022/05/05 07:34:34;;;;;;;2.17;0.73;;;25.50;65.30;;;;;;5072113;23;20344;-59
2022/05/05 07:36:36;;;;;;;3.80;0.90;;;25.50;65.30;;;;;;5102191;23;20020;-59
2022/05/05 07:38:38;;;;;;;2.60;0.90;;;25.50;65.40;;;;;;5086177;23;20032;-59
2022/05/05 07:40:40;;;;;;;2.10;0.80;;;25.40;65.40;;;;;;5092352;23;20025;-60
2022/05/05 07:42:42;;;;;;;1.58;1.10;;;25.40;65.50;;;;;;5075972;23;20025;-59
2022/05/05 07:44:44;;;;;;;0.82;0.55;;;25.40;65.50;;;;;;5110122;23;20028;-60
2022/05/05 07:46:46;;;;;;;4.85;0.90;;;25.40;65.50;;;;;;5082313;23;20674;-59
2022/05/05 07:48:48;;;;;;;1.75;0.90;;;25.40;65.60;;;;;;5106228;23;20468;-59
2022/05/05 07:50:51;;;;;;;5.18;1.00;;;25.40;65.60;;;;;;5097157;23;20032;-59
2022/05/05 07:52:53;;;;;;;2.83;0.97;;;25.30;65.60;;;;;;5100850;23;20559;-59
2022/05/05 07:54:55;;;;;;;2.03;0.88;;;25.30;65.60;;;;;;5093589;23;20083;-61
2022/05/05 07:56:57;;;;;;;2.75;1.25;;;25.30;65.70;;;;;;5043106;23;20178;-61
2022/05/05 07:59:00;;;;;;;2.90;1.08;;;25.30;66.20;;;;;;5072728;23;20075;-61
2022/05/05 08:01:02;;;;;;;1.98;1.15;;;25.30;65.60;;;;;;5093573;23;20526;-60
2022/05/05 08:03:04;;;;;;;2.70;0.70;;;25.20;65.60;;;;;;5096324;23;20361;-59
2022/05/05 08:05:09;;;;;;;1.98;0.80;;;25.20;65.50;;;;;;5100757;23;20435;-59
2022/05/05 08:07:12;;;;;;;3.13;0.93;;;25.20;65.70;;;;;;5098628;23;20155;-59
2022/05/05 08:09:13;;;;;;;;;;;25.20;65.60;;;;;;5094701;23;20067;-59
2022/05/05 08:11:16;;;;;;;3.70;1.10;;;25.20;65.70;;;;;;5093094;23;20406;-60
2022/05/05 08:13:18;;;;;;;2.13;0.90;;;25.20;65.70;;;;;;5099859;23;20654;-60
2022/05/05 08:15:20;;;;;;;1.60;0.70;;;25.20;65.70;;;;;;5092386;23;20039;-61
2022/05/05 08:17:22;;;;;;;2.03;0.98;;;25.10;65.70;;;;;;5090660;23;20035;-60
2022/05/05 08:19:25;;;;;;;4.40;1.30;;;25.10;65.70;;;;;;5100121;23;20409;-59
2022/05/05 08:21:27;;;;;;;4.05;0.85;;;25.10;65.80;;;;;;5094582;23;20885;-60
2022/05/05 08:23:29;;;;;;;3.28;0.90;;;25.10;65.80;;;;;;5092766;23;20585;-60
2022/05/05 08:30:13;;;;;;;2.05;1.05;;;25.10;65.80;;;;;;5065515;23;20810;-65
2022/05/05 08:32:15;;;;;;;3.22;1.08;;;25.10;65.80;;;;;;5042017;23;20552;-62
2022/05/05 08:34:17;;;;;;;0.77;0.75;;;25.00;65.80;;;;;;5098621;23;20355;-63
2022/05/05 08:36:19;;;;;;;1.90;0.80;;;25.10;66.00;;;;;;5095873;23;20029;-62
2022/05/05 08:38:22;;;;;;;1.48;0.90;;;25.00;65.80;;;;;;5091290;23;20421;-63
2022/05/05 08:40:27;;;;;;;4.38;1.45;;;25.00;65.80;;;;;;5095164;23;20464;-61
2022/05/05 08:42:29;;;;;;;3.53;1.00;;;25.00;65.80;;;;;;5098628;23;20083;-61
2022/05/05 08:44:31;;;;;;;4.75;1.10;;;25.00;65.80;;;;;;5094524;23;20032;-59
2022/05/05 08:46:34;;;;;;;2.93;0.80;;;25.00;65.80;;;;;;5092490;23;20060;-60
2022/05/05 08:48:37;;;;;;;1.65;0.90;;;25.00;65.80;;;;;;5069124;23;20434;-60
2022/05/05 08:50:44;;;;;;;1.45;0.93;;;25.00;65.80;;;;;;5097736;23;20539;-60
2022/05/05 08:52:49;;;;;;;1.30;0.73;;;24.90;65.70;;;;;;5091753;23;20569;-58
2022/05/05 08:54:51;;;;;;;3.47;1.23;;;25.00;66.40;;;;;;5066321;23;20029;-59
2022/05/05 08:56:56;;;;;;;1.70;0.98;;;24.90;65.80;;;;;;5098310;23;20028;-60
2022/05/05 08:58:58;;;;;;;2.05;0.65;;;24.90;65.80;;;;;;5096681;23;20136;-59
2022/05/05 09:01:00;;;;;;;1.35;0.80;;;24.90;65.80;;;;;;5094494;23;20385;-61
2022/05/05 09:03:04;;;;;;;3.20;0.98;;;24.90;65.70;;;;;;5096005;23;20035;-58
2022/05/05 09:05:08;;;;;;;2.35;0.80;;;24.90;65.50;;;;;;5099089;23;20503;-59
2022/05/05 09:07:10;;;;;;;1.70;0.90;;;24.90;65.40;;;;;;5099491;23;20024;-58
2022/05/05 09:09:27;;;;;;;6.07;0.90;;;24.80;65.40;;;;;;5093903;23;20029;-58
2022/05/05 09:11:29;;;;;;;1.83;0.90;;;24.80;65.50;;;;;;5045620;23;20108;-58
2022/05/05 09:13:36;;;;;;;1.35;1.08;;;24.80;65.40;;;;;;5066767;23;20549;-58
2022/05/05 09:15:41;;;;;;;2.35;1.60;;;24.80;65.40;;;;;;5094909;23;20032;-57
2022/05/05 09:17:43;;;;;;;2.88;1.70;;;24.80;65.40;;;;;;5101820;23;20100;-58
2022/05/05 09:19:49;;;;;;;8.45;2.83;;;24.80;65.40;;;;;;5095167;23;20032;-57
2022/05/05 09:21:51;;;;;;;3.45;2.53;;;24.80;65.40;;;;;;5089173;23;20029;-59
2022/05/05 09:26:17;;;;;;;8.18;6.45;;;24.70;65.30;;;;;;5067260;23;20029;-59
2022/05/05 09:28:21;;;;;;;7.25;6.07;;;24.70;65.30;;;;;;5066640;23;20103;-59
2022/05/05 09:30:23;;;;;;;8.93;7.20;;;24.70;65.40;;;;;;5070881;23;20033;-59
2022/05/05 09:32:30;;;;;;;9.90;8.32;;;24.70;65.40;;;;;;5067260;23;20624;-59
2022/05/05 09:34:32;;;;;;;9.55;7.82;;;24.70;65.50;;;;;;5093701;23;20119;-62
2022/05/05 09:36:35;;;;;;;10.73;9.32;;;24.70;65.70;;;;;;5063648;23;20037;-59
2022/05/05 09:38:56;;;;;;;13.27;9.25;;;24.70;65.70;;;;;;5097557;23;20039;-59
2022/05/05 09:41:05;;;;;;;11.63;9.40;;;24.70;65.70;;;;;;5090106;23;20047;-59
2022/05/05 09:43:11;;;;;;;13.48;9.07;;;24.70;65.80;;;;;;5090896;23;20190;-59
2022/05/05 09:45:19;;;;;;;11.00;9.27;;;24.70;65.90;;;;;;5067256;23;20041;-63
2022/05/05 09:47:21;;;;;;;14.82;9.93;;;24.70;66.00;;;;;;5067963;23;20260;-59
2022/05/05 09:49:24;;;;;;;11.90;8.68;;;24.70;66.10;;;;;;5088908;23;20361;-59
2022/05/05 09:51:26;;;;;;;12.63;10.35;;;24.70;66.20;;;;;;5060020;23;20039;-59
2022/05/05 09:58:12;;;;;;;10.90;8.70;;;24.70;66.50;;;;;;5089227;23;20024;-57
2022/05/05 10:04:58;;;;;;;10.88;8.82;;;24.70;66.60;;;;;;5091814;23;20772;-60
2022/05/05 10:07:03;;;;;;;12.43;9.35;;;24.70;66.60;;;;;;5062839;23;20032;-60
2022/05/05 10:09:12;;;;;;;11.70;8.02;;;24.60;66.60;;;;;;5084088;23;20409;-60
2022/05/05 10:11:15;;;;;;;9.73;8.25;;;24.60;66.70;;;;;;5086880;23;20024;-59
2022/05/05 10:13:20;;;;;;;10.75;7.63;;;24.70;66.80;;;;;;5090444;23;20468;-60
2022/05/05 10:15:23;;;;;;;10.07;7.40;;;24.70;66.70;;;;;;5088785;23;20029;-59
2022/05/05 10:17:25;;;;;;;8.57;7.50;;;24.70;66.80;;;;;;5085935;23;20417;-59
2022/05/05 10:19:27;;;;;;;8.05;6.68;;;24.60;66.70;;;;;;5088016;23;20086;-59
2022/05/05 10:21:45;;;;;;;7.95;6.30;;;24.60;66.80;;;;;;5091591;23;20029;-58
2022/05/05 10:23:56;;;;;;;8.18;5.80;;;24.60;66.80;;;;;;5095206;23;20424;-58
2022/05/05 10:25:59;;;;;;;9.55;6.63;;;24.60;66.90;;;;;;5092729;23;20458;-58
2022/05/05 10:28:01;;;;;;;8.20;6.10;;;24.60;66.80;;;;;;5089998;23;20132;-56
2022/05/05 10:30:03;;;;;;;6.97;5.38;;;24.60;66.80;;;;;;5088761;23;20092;-58
2022/05/05 10:32:12;;;;;;;6.30;4.70;;;24.60;66.80;;;;;;5092331;23;20028;-59
2022/05/05 10:34:18;;;;;;;5.68;4.43;;;24.60;66.80;;;;;;5092766;23;20028;-58
2022/05/05 10:36:23;;;;;;;7.28;4.60;;;24.60;66.80;;;;;;5092907;23;20237;-58
2022/05/05 10:38:42;;;;;;;6.03;4.25;;;24.60;66.90;;;;;;5086446;23;20175;-59
2022/05/05 10:40:45;;;;;;;7.28;4.20;;;24.60;66.90;;;;;;5094321;23;20043;-58
2022/05/05 10:42:52;;;;;;;5.07;4.10;;;24.60;67.00;;;;;;5089876;23;20024;-59
2022/05/05 10:45:15;;;;;;;5.72;3.90;;;24.60;67.00;;;;;;5091308;23;20032;-58
2022/05/05 10:47:17;;;;;;;8.45;3.95;;;24.60;67.00;;;;;;5090808;23;20596;-59
2022/05/05 10:49:38;;;;;;;6.50;3.67;;;24.60;67.10;;;;;;5092565;23;20401;-58
2022/05/05 10:52:12;;;;;;;4.82;3.80;;;24.60;67.10;;;;;;5091750;23;20296;-58
2022/05/05 10:54:23;;;;;;;6.25;3.35;;;24.60;67.00;;;;;;5066354;23;20025;-58
2022/05/05 10:56:33;;;;;;;5.55;3.10;;;24.60;66.90;;;;;;5092013;23;20075;-58
2022/05/05 10:59:04;;;;;;;4.72;3.60;;;24.60;66.90;;;;;;5090573;23;20323;-58
2022/05/05 11:01:09;;;;;;;3.38;2.53;;;24.60;66.90;;;;;;5068268;23;20820;-58
2022/05/05 11:03:18;;;;;;;6.72;2.95;;;24.60;66.80;;;;;;5090781;23;20137;-58
2022/05/05 11:05:28;;;;;;;5.72;2.95;;;24.70;66.90;;;;;;5092546;23;20361;-59
2022/05/05 11:07:36;;;;;;;4.72;3.10;;;24.70;66.80;;;;;;5090512;23;20135;-57
2022/05/05 11:09:38;;;;;;;4.38;2.58;;;24.70;66.70;;;;;;5091389;23;20028;-57
2022/05/05 11:11:45;;;;;;;4.20;3.17;;;24.70;66.70;;;;;;5096941;23;20067;-58
2022/05/05 11:13:48;;;;;;;4.90;2.88;;;24.70;66.80;;;;;;5096969;23;20028;-60
2022/05/05 11:22:55;;;;;;;3.83;2.42;;;24.70;66.80;;;;;;5095470;23;20029;-54
2022/05/05 11:24:58;;;;;;;4.30;2.85;;;24.70;66.80;;;;;;5069887;23;20033;-57
2022/05/05 11:27:00;;;;;;;3.85;2.10;;;24.70;66.70;;;;;;5099275;23;20029;-57
2022/05/05 11:29:02;;;;;;;4.25;2.55;;;24.70;66.90;;;;;;5093124;23;20029;-58